Search for airport 
image banner adimage banner adimage banner ad
image banner ad

1PA2 - St Christopher's Hospital For Children

Located in Philadelphia, United States

ICAO - 1PA2, IATA -

Data provided by Airmate  

General information

Coordinates: N40°0'25" W75°7'29"
Elevation is 183 feet MSL.
Magnetic variation is -11° East
View others Airports in Pennsylvania

Operational data

Special qualification required
Current time UTC:
Current local time:
Weather at : KPNE - Northeast Philadelphia ( 13 km )
METAR: KPNE 091354Z 00000KT 10SM OVC110 12/04 A3012 RMK AO2 SLP198 T01170044 $
TAF: KPNE 091120Z 0912/1012 VRB04KT P6SM SCT250 FM092200 15006KT P6SM VCSH OVC025 FM100400 12005KT P6SM BKN045 WS020/22040KT FM101100 31008KT P6SM SCT035
View NOTAMs / SUP AIP / TFR affecting this airport [VIEW]
Communications frequencies: [VIEW]

Runways:

Airport contact information

Address: Philadelphia United States

Satellite view of 1PA2